Time;durP1;ratioP1;P1;durP2;ratioP2;P2;SDS_P1;SDS_P2;PMS_P1;PMS_P2;Temp;Humidity;BMP_temperature;BMP_pressure;BME280_temperature;BME280_humidity;BME280_pressure;Samples;Min_cycle;Max_cycle;Signal;HPM_P1;HPM_P2
2021/06/30 00:00:10;;;;;;;5.05;1.83;;;14.30;99.90;;;;;;4957758;28;20047;-93
2021/06/30 00:02:37;;;;;;;4.25;1.80;;;14.30;99.90;;;;;;4956859;28;20164;-91
2021/06/30 00:05:06;;;;;;;5.32;1.40;;;14.40;99.90;;;;;;4973719;28;20126;-93
2021/06/30 00:07:33;;;;;;;7.80;2.10;;;14.40;99.90;;;;;;4957730;28;20429;-91
2021/06/30 00:10:04;;;;;;;11.73;1.85;;;14.40;99.90;;;;;;4953515;28;20043;-91
2021/06/30 00:12:31;;;;;;;3.63;1.55;;;14.40;99.90;;;;;;4970713;28;20050;-93
2021/06/30 00:15:09;;;;;;;3.70;1.50;;;14.40;99.90;;;;;;4973881;28;20051;-91
2021/06/30 00:17:37;;;;;;;4.22;1.15;;;14.40;99.90;;;;;;4959660;28;20046;-93
2021/06/30 00:20:09;;;;;;;1.75;1.40;;;14.40;99.90;;;;;;4973987;28;20061;-91
2021/06/30 00:22:39;;;;;;;3.53;1.30;;;14.30;99.90;;;;;;4974555;28;20130;-93
2021/06/30 00:25:17;;;;;;;6.53;1.58;;;14.40;99.90;;;;;;4974309;28;20043;-92
2021/06/30 00:27:44;;;;;;;5.30;1.92;;;14.30;99.90;;;;;;4974359;28;20056;-90
2021/06/30 00:30:18;;;;;;;2.05;1.58;;;14.30;99.90;;;;;;4958652;28;20117;-93
2021/06/30 00:32:46;;;;;;;1.92;1.60;;;14.40;99.90;;;;;;4975067;28;20051;-92
2021/06/30 00:35:18;;;;;;;;;;;14.30;99.90;;;;;;4958787;28;20042;-91
2021/06/30 00:37:44;;;;;;;7.03;1.95;;;14.30;99.90;;;;;;4959671;28;19985;-94
2021/06/30 00:40:20;;;;;;;5.75;1.80;;;14.30;99.90;;;;;;4953641;28;20097;-92
2021/06/30 00:42:47;;;;;;;3.88;1.33;;;14.30;99.90;;;;;;4958110;28;20047;-93
2021/06/30 00:45:23;;;;;;;7.70;1.83;;;14.30;99.90;;;;;;4958480;28;20065;-94
2021/06/30 00:47:55;;;;;;;2.35;1.30;;;14.20;99.90;;;;;;4973389;28;20101;-91
2021/06/30 00:50:23;;;;;;;4.88;1.35;;;14.30;99.90;;;;;;4973851;28;20065;-93
2021/06/30 00:52:55;;;;;;;;;;;14.30;99.90;;;;;;4959311;28;20114;-92
2021/06/30 00:55:23;;;;;;;2.85;1.38;;;14.30;99.90;;;;;;4951485;28;20421;-91
2021/06/30 00:57:50;;;;;;;4.15;1.60;;;14.20;99.90;;;;;;4972669;28;20071;-93
2021/06/30 01:00:17;;;;;;;2.97;1.33;;;14.20;99.90;;;;;;4957691;28;20070;-91
2021/06/30 01:02:50;;;;;;;3.05;1.45;;;14.20;99.90;;;;;;4966635;28;20154;-91
2021/06/30 01:05:26;;;;;;;6.40;1.75;;;14.20;99.90;;;;;;4973486;28;20109;-93
2021/06/30 01:07:56;;;;;;;3.28;1.50;;;14.10;99.90;;;;;;4968456;28;20043;-90
2021/06/30 01:10:23;;;;;;;6.53;1.60;;;14.10;99.90;;;;;;4972584;28;20069;-91
2021/06/30 01:12:55;;;;;;;2.30;1.63;;;14.00;99.90;;;;;;4972710;28;20079;-91
2021/06/30 01:15:27;;;;;;;3.22;1.67;;;14.00;99.90;;;;;;4950948;28;20055;-93
2021/06/30 01:18:01;;;;;;;4.70;2.00;;;14.00;99.90;;;;;;4956575;28;20101;-93
2021/06/30 01:20:30;;;;;;;3.13;1.67;;;14.00;99.90;;;;;;4974206;28;20045;-92
2021/06/30 01:23:04;;;;;;;9.52;2.28;;;13.90;99.90;;;;;;4969398;28;20051;-92
2021/06/30 01:25:38;;;;;;;1.88;1.67;;;13.80;99.90;;;;;;4951468;28;20043;-90
2021/06/30 01:28:11;;;;;;;1.40;1.00;;;13.80;99.90;;;;;;4973641;28;20043;-91
2021/06/30 01:30:45;;;;;;;6.00;1.23;;;13.60;99.90;;;;;;4975877;28;20047;-92
2021/06/30 01:33:26;;;;;;;1.23;1.13;;;13.50;99.90;;;;;;4955715;28;20125;-92
2021/06/30 01:35:58;;;;;;;3.92;1.27;;;13.30;99.90;;;;;;4974629;28;20480;-90
2021/06/30 01:38:28;;;;;;;2.63;1.30;;;13.20;99.90;;;;;;4957007;28;20518;-91
2021/06/30 01:40:57;;;;;;;7.53;1.50;;;13.10;99.90;;;;;;4972125;28;20053;-92
2021/06/30 01:43:24;;;;;;;1.27;1.17;;;13.00;99.90;;;;;;4970702;28;20050;-92
2021/06/30 01:45:52;;;;;;;4.03;1.33;;;13.00;99.90;;;;;;4954921;28;20057;-92
2021/06/30 01:48:22;;;;;;;4.38;1.75;;;12.90;99.90;;;;;;4971815;28;20055;-93
2021/06/30 01:50:54;;;;;;;4.38;1.60;;;12.90;99.90;;;;;;4973379;28;20057;-92
2021/06/30 01:53:26;;;;;;;4.88;1.63;;;12.90;99.90;;;;;;4956705;28;20058;-92
2021/06/30 01:56:00;;;;;;;2.55;2.13;;;12.90;99.90;;;;;;4969835;28;20483;-93
2021/06/30 01:58:32;;;;;;;2.88;1.40;;;12.90;99.90;;;;;;4973891;28;20077;-94
2021/06/30 02:00:59;;;;;;;1.35;1.20;;;12.80;99.90;;;;;;4954070;28;20464;-92
2021/06/30 02:03:31;;;;;;;1.55;1.45;;;12.80;99.90;;;;;;4972161;28;20051;-89
2021/06/30 02:05:58;;;;;;;1.30;1.20;;;12.70;99.90;;;;;;4955328;28;20105;-94
2021/06/30 02:08:30;;;;;;;1.25;1.00;;;12.70;99.90;;;;;;4974668;28;20475;-93
2021/06/30 02:11:04;;;;;;;3.22;1.10;;;12.70;99.90;;;;;;4983238;28;20055;-90
2021/06/30 02:13:36;;;;;;;1.02;0.77;;;12.70;99.90;;;;;;4973796;28;20058;-93
2021/06/30 02:16:11;;;;;;;2.15;1.10;;;12.70;99.90;;;;;;4958357;28;20046;-92
2021/06/30 02:18:52;;;;;;;2.47;0.93;;;12.60;99.90;;;;;;4973949;28;20433;-93
2021/06/30 02:21:24;;;;;;;0.95;0.82;;;12.60;99.90;;;;;;4967980;28;20211;-90
2021/06/30 02:23:54;;;;;;;2.25;1.20;;;12.60;99.90;;;;;;4956544;28;20043;-93
2021/06/30 02:26:23;;;;;;;3.92;1.25;;;12.60;99.90;;;;;;4976257;28;21781;-92
2021/06/30 02:28:51;;;;;;;2.72;1.13;;;12.60;99.90;;;;;;4961397;28;20058;-93
2021/06/30 02:32:05;;;;;;;1.50;1.02;;;12.60;99.90;;;;;;4967383;28;20078;-94
2021/06/30 02:34:32;;;;;;;1.35;0.90;;;12.60;99.90;;;;;;4954632;28;20050;-91
2021/06/30 02:36:59;;;;;;;1.02;1.02;;;12.50;99.90;;;;;;4960771;28;20062;-94
2021/06/30 02:39:33;;;;;;;0.80;0.80;;;12.60;99.90;;;;;;4957341;28;20097;-91
2021/06/30 02:42:10;;;;;;;2.78;1.10;;;12.60;99.90;;;;;;4976558;28;20047;-93
2021/06/30 02:44:42;;;;;;;3.05;1.02;;;12.60;99.90;;;;;;4950875;28;20109;-90
2021/06/30 02:47:13;;;;;;;2.17;1.27;;;12.60;99.90;;;;;;4974278;28;20090;-91
2021/06/30 02:49:40;;;;;;;2.80;0.85;;;12.50;99.90;;;;;;4986605;28;20107;-90
2021/06/30 02:52:15;;;;;;;0.77;0.77;;;12.50;99.90;;;;;;4974681;28;20118;-94
2021/06/30 02:54:42;;;;;;;3.00;0.88;;;12.50;99.90;;;;;;4977800;28;20054;-91
2021/06/30 02:57:08;;;;;;;0.70;0.70;;;12.50;99.90;;;;;;4973579;28;20130;-91
2021/06/30 02:59:36;;;;;;;5.70;1.00;;;12.50;99.90;;;;;;4955516;28;20043;-90
2021/06/30 03:02:09;;;;;;;1.95;1.27;;;12.50;99.90;;;;;;4971703;28;20126;-92
2021/06/30 03:04:47;;;;;;;1.35;0.93;;;12.50;99.90;;;;;;4966512;28;20055;-95
2021/06/30 03:07:21;;;;;;;1.70;1.58;;;12.40;99.90;;;;;;4943640;28;20130;-92
2021/06/30 03:09:53;;;;;;;2.65;1.33;;;12.40;99.90;;;;;;4962292;28;20046;-95
2021/06/30 03:12:25;;;;;;;2.00;1.38;;;12.30;99.90;;;;;;4966287;28;20050;-92
2021/06/30 03:14:57;;;;;;;3.05;1.02;;;12.30;99.90;;;;;;4974720;28;20054;-90
2021/06/30 03:17:24;;;;;;;2.15;1.15;;;12.30;99.90;;;;;;4973918;28;20417;-92
2021/06/30 03:19:54;;;;;;;1.15;1.05;;;12.30;99.90;;;;;;4958186;28;20047;-90
2021/06/30 03:22:23;;;;;;;1.42;1.33;;;12.30;99.90;;;;;;4963795;28;20051;-93
2021/06/30 03:24:56;;;;;;;1.05;0.95;;;12.40;99.90;;;;;;4956941;28;20081;-91
2021/06/30 03:27:28;;;;;;;1.10;1.00;;;12.40;99.90;;;;;;4972349;28;20134;-93
2021/06/30 03:29:55;;;;;;;1.65;1.35;;;12.40;99.90;;;;;;4955326;28;20689;-89
2021/06/30 03:32:22;;;;;;;3.58;1.00;;;12.40;99.90;;;;;;4972701;28;20512;-93
2021/06/30 03:34:55;;;;;;;1.10;1.00;;;12.40;99.90;;;;;;4971886;28;20105;-92
2021/06/30 03:37:22;;;;;;;1.27;1.00;;;12.40;99.90;;;;;;4976574;28;20046;-91
2021/06/30 03:39:59;;;;;;;2.45;1.17;;;12.40;99.90;;;;;;4974984;28;20408;-93
2021/06/30 03:42:31;;;;;;;3.70;1.10;;;12.40;99.90;;;;;;4976914;28;20047;-92
2021/06/30 03:45:01;;;;;;;1.83;1.00;;;12.40;99.90;;;;;;4976408;28;20486;-92
2021/06/30 03:47:28;;;;;;;1.50;1.20;;;12.40;99.90;;;;;;4960119;28;20703;-91
2021/06/30 03:50:00;;;;;;;1.08;0.98;;;12.40;99.90;;;;;;4960941;28;20446;-92
2021/06/30 03:52:32;;;;;;;4.00;0.90;;;12.40;99.90;;;;;;4962368;28;20059;-92
2021/06/30 03:55:07;;;;;;;2.30;0.80;;;12.40;99.90;;;;;;4980008;28;20054;-93
2021/06/30 03:57:35;;;;;;;2.60;0.80;;;12.30;99.90;;;;;;4974611;28;20062;-91
2021/06/30 04:00:08;;;;;;;1.15;1.00;;;12.40;99.90;;;;;;4975716;28;21687;-92
2021/06/30 04:02:41;;;;;;;2.50;0.90;;;12.30;99.90;;;;;;4975448;28;20472;-92
2021/06/30 04:05:15;;;;;;;1.02;0.90;;;12.40;99.90;;;;;;4964964;28;20527;-92
2021/06/30 04:07:47;;;;;;;1.48;0.98;;;12.40;99.90;;;;;;4975682;28;20057;-92
2021/06/30 04:10:20;;;;;;;1.73;1.08;;;12.40;99.90;;;;;;4944946;28;20121;-90
2021/06/30 04:12:47;;;;;;;0.98;0.98;;;12.40;99.90;;;;;;4957029;28;20051;-92
2021/06/30 04:15:14;;;;;;;2.13;0.90;;;12.40;99.90;;;;;;4957180;28;20043;-91
2021/06/30 04:17:42;;;;;;;2.45;1.00;;;12.40;99.90;;;;;;4974921;28;20051;-90
2021/06/30 04:20:12;;;;;;;4.57;1.15;;;12.40;99.90;;;;;;4974274;28;20341;-89
2021/06/30 04:22:42;;;;;;;1.52;0.90;;;12.40;99.90;;;;;;4975438;28;20046;-91
2021/06/30 04:25:10;;;;;;;2.67;0.93;;;12.50;99.90;;;;;;4974246;28;20098;-90
2021/06/30 04:27:50;;;;;;;1.00;0.95;;;12.50;99.90;;;;;;4971874;28;20425;-93
2021/06/30 04:30:38;;;;;;;1.30;1.10;;;12.50;99.90;;;;;;4956403;28;20030;-92
2021/06/30 04:33:13;;;;;;;1.60;0.85;;;12.50;99.90;;;;;;4980187;28;20042;-94
2021/06/30 04:35:41;;;;;;;3.20;0.98;;;12.50;99.90;;;;;;4961769;28;20077;-93
2021/06/30 04:38:08;;;;;;;1.08;1.05;;;12.60;99.90;;;;;;4960598;28;20050;-94
2021/06/30 04:40:36;;;;;;;1.05;0.95;;;12.60;99.90;;;;;;4959474;28;20047;-94
2021/06/30 04:43:15;;;;;;;3.83;1.05;;;12.60;99.90;;;;;;4976057;28;20047;-94
2021/06/30 04:45:45;;;;;;;0.95;0.90;;;12.70;99.90;;;;;;4960256;28;20042;-93
2021/06/30 04:48:12;;;;;;;1.80;1.08;;;12.70;99.90;;;;;;4955518;28;20043;-88
2021/06/30 04:50:48;;;;;;;1.27;0.93;;;12.70;99.90;;;;;;4971212;28;20047;-91
2021/06/30 04:53:25;;;;;;;1.70;1.00;;;12.60;99.90;;;;;;4968947;28;20058;-88
2021/06/30 04:55:53;;;;;;;1.10;1.00;;;12.70;99.90;;;;;;4962458;28;20047;-90
2021/06/30 04:58:25;;;;;;;1.38;1.00;;;12.60;99.90;;;;;;4954929;28;20631;-91
2021/06/30 05:00:55;;;;;;;4.22;1.13;;;12.60;99.90;;;;;;4961968;28;20051;-94
2021/06/30 05:03:51;;;;;;;1.00;1.00;;;12.50;99.90;;;;;;4966005;28;20097;-93
2021/06/30 05:06:22;;;;;;;2.80;1.20;;;12.50;99.90;;;;;;4974677;28;20069;-93
2021/06/30 05:08:58;;;;;;;1.20;1.10;;;12.50;99.90;;;;;;4954751;28;20548;-89
2021/06/30 05:11:31;;;;;;;7.10;1.60;;;12.50;99.90;;;;;;4945361;29;20452;-89
2021/06/30 05:14:08;;;;;;;1.60;0.90;;;12.60;99.90;;;;;;4933187;28;20051;-90
2021/06/30 05:16:42;;;;;;;1.02;0.90;;;12.70;99.90;;;;;;4955764;28;20059;-91
2021/06/30 05:19:11;;;;;;;1.80;1.60;;;12.80;99.90;;;;;;4970167;28;20523;-90
2021/06/30 05:21:43;;;;;;;1.95;1.27;;;12.80;99.90;;;;;;4953975;29;20086;-87
2021/06/30 05:24:15;;;;;;;1.92;1.00;;;12.80;99.90;;;;;;4938758;29;20110;-89
2021/06/30 05:26:47;;;;;;;1.10;0.98;;;12.90;99.90;;;;;;4944320;29;20118;-90
2021/06/30 05:29:19;;;;;;;3.90;0.90;;;13.00;99.90;;;;;;4954768;29;20047;-88
2021/06/30 05:31:51;;;;;;;1.30;0.82;;;13.10;99.90;;;;;;4958141;28;20087;-89
2021/06/30 05:34:25;;;;;;;2.28;1.23;;;13.20;99.90;;;;;;4930938;29;20457;-91
2021/06/30 05:36:59;;;;;;;3.40;1.15;;;13.20;99.90;;;;;;4937615;29;20465;-90
2021/06/30 05:39:26;;;;;;;1.50;0.70;;;13.40;99.90;;;;;;4953534;29;20062;-88
2021/06/30 05:42:00;;;;;;;1.52;1.02;;;13.40;99.90;;;;;;4951974;28;20473;-87
2021/06/30 05:44:32;;;;;;;4.88;0.80;;;13.60;99.90;;;;;;4939822;29;20135;-90
2021/06/30 05:47:01;;;;;;;0.90;0.90;;;13.80;99.90;;;;;;4934790;29;20465;-92
2021/06/30 05:49:52;;;;;;;1.95;0.60;;;13.80;99.90;;;;;;4951630;28;20059;-90
2021/06/30 05:52:41;;;;;;;1.05;0.65;;;13.70;99.90;;;;;;4887017;29;20180;-89
2021/06/30 05:55:17;;;;;;;0.65;0.65;;;13.60;99.90;;;;;;4865644;29;20177;-90
2021/06/30 05:57:43;;;;;;;0.57;0.57;;;13.60;99.90;;;;;;4877373;29;20121;-91
2021/06/30 06:00:14;;;;;;;1.23;0.70;;;13.70;99.90;;;;;;4839359;29;20133;-90
2021/06/30 06:02:47;;;;;;;1.65;0.75;;;13.90;99.90;;;;;;4855641;29;20061;-91
2021/06/30 06:05:15;;;;;;;2.25;0.70;;;14.00;99.90;;;;;;4878478;29;20131;-91
2021/06/30 06:07:49;;;;;;;1.42;0.77;;;14.40;99.90;;;;;;4889571;29;20488;-90
2021/06/30 06:10:32;;;;;;;2.15;0.70;;;14.60;99.90;;;;;;4878992;29;20072;-91
2021/06/30 06:13:00;;;;;;;0.80;0.70;;;14.50;99.90;;;;;;4890310;29;20056;-89
2021/06/30 06:15:36;;;;;;;1.08;0.70;;;14.40;99.90;;;;;;4893116;28;20056;-92
2021/06/30 06:18:09;;;;;;;0.57;0.57;;;14.40;99.90;;;;;;4955783;28;20473;-90
2021/06/30 06:20:36;;;;;;;0.60;0.60;;;14.30;99.90;;;;;;4966667;28;20198;-88
2021/06/30 06:23:06;;;;;;;1.40;0.50;;;14.60;99.90;;;;;;4953032;28;20130;-93
2021/06/30 06:25:34;;;;;;;1.67;0.60;;;14.60;99.90;;;;;;4954325;28;20136;-89
2021/06/30 06:28:04;;;;;;;0.57;0.50;;;14.60;99.90;;;;;;4974396;28;20130;-92
2021/06/30 06:30:39;;;;;;;0.85;0.68;;;14.90;99.90;;;;;;4958583;28;20058;-93
2021/06/30 06:33:11;;;;;;;0.52;0.50;;;15.00;99.90;;;;;;4973240;28;20055;-93
2021/06/30 06:35:41;;;;;;;0.75;0.70;;;14.90;99.90;;;;;;4955274;28;20059;-92
2021/06/30 06:38:28;;;;;;;0.50;0.50;;;15.20;99.90;;;;;;4971604;28;20046;-94
2021/06/30 06:41:22;;;;;;;0.82;0.50;;;15.70;99.90;;;;;;4949301;28;20062;-94
2021/06/30 06:44:03;;;;;;;0.40;0.40;;;16.00;99.90;;;;;;4964154;28;20066;-91
2021/06/30 06:46:31;;;;;;;0.40;0.40;;;15.80;99.90;;;;;;4973589;28;20054;-94
2021/06/30 06:49:04;;;;;;;4.32;0.80;;;15.80;99.90;;;;;;4972719;28;20109;-92
2021/06/30 06:51:39;;;;;;;1.13;0.50;;;15.90;99.90;;;;;;4957600;28;20685;-92
2021/06/30 06:54:11;;;;;;;0.55;0.55;;;15.90;99.90;;;;;;4973508;28;20058;-94
2021/06/30 06:56:45;;;;;;;2.15;0.40;;;16.00;99.90;;;;;;4970552;28;20057;-92
2021/06/30 06:59:23;;;;;;;;;;;;;;;;;;;;;
2021/06/30 07:02:00;;;;;;;0.90;0.50;;;16.00;99.90;;;;;;4970591;28;20412;-93
2021/06/30 07:04:28;;;;;;;2.10;0.40;;;16.00;99.90;;;;;;4966762;28;20130;-90
2021/06/30 07:07:01;;;;;;;0.70;0.30;;;16.10;99.90;;;;;;4958961;28;20043;-92
2021/06/30 07:09:28;;;;;;;0.52;0.30;;;16.40;99.90;;;;;;4975114;28;20432;-93
2021/06/30 07:12:05;;;;;;;3.25;0.30;;;16.40;99.90;;;;;;4958495;28;20069;-94
2021/06/30 07:14:42;;;;;;;2.83;0.65;;;16.50;99.90;;;;;;4957602;28;20452;-91
2021/06/30 07:17:12;;;;;;;1.42;0.43;;;16.80;99.90;;;;;;4970199;28;20051;-91
2021/06/30 07:19:44;;;;;;;2.08;0.45;;;16.80;99.90;;;;;;4973286;28;20055;-90
2021/06/30 07:22:19;;;;;;;0.73;0.40;;;16.60;99.90;;;;;;4955103;28;20047;-92
2021/06/30 07:24:46;;;;;;;1.40;0.75;;;16.40;99.90;;;;;;4974997;28;20351;-92
2021/06/30 07:27:20;;;;;;;0.95;0.50;;;16.30;99.90;;;;;;4958306;28;20689;-92
2021/06/30 07:29:50;;;;;;;0.60;0.60;;;16.10;99.90;;;;;;4958025;28;20060;-92
2021/06/30 07:32:17;;;;;;;0.40;0.40;;;16.00;99.90;;;;;;4958550;28;20098;-93
2021/06/30 07:34:44;;;;;;;0.52;0.30;;;15.90;99.90;;;;;;4974352;28;20078;-92
2021/06/30 07:40:34;;;;;;;0.85;0.43;;;16.00;99.90;;;;;;4966386;28;20062;-91
2021/06/30 07:43:18;;;;;;;0.35;0.32;;;16.10;99.90;;;;;;4972567;28;20046;-92
2021/06/30 07:45:50;;;;;;;1.27;0.40;;;16.30;99.90;;;;;;4972634;28;20066;-93
2021/06/30 07:48:27;;;;;;;0.30;0.30;;;16.20;99.90;;;;;;4969607;28;20476;-92
2021/06/30 07:51:29;;;;;;;3.20;0.43;;;16.20;99.90;;;;;;4972007;28;20382;-91
2021/06/30 07:54:18;;;;;;;0.20;0.20;;;16.40;99.90;;;;;;4956931;28;20079;-93
2021/06/30 07:56:47;;;;;;;0.30;0.30;;;17.00;99.90;;;;;;4982752;28;20452;-94
2021/06/30 07:59:17;;;;;;;1.70;0.30;;;17.10;99.90;;;;;;4957541;28;20190;-92
2021/06/30 08:01:44;;;;;;;4.03;0.50;;;17.00;99.90;;;;;;4974371;28;20058;-91
2021/06/30 08:04:21;;;;;;;0.32;0.30;;;16.70;99.90;;;;;;4962769;28;20055;-95
2021/06/30 08:06:49;;;;;;;0.98;0.43;;;16.40;99.90;;;;;;4941603;28;20393;-91
2021/06/30 08:09:22;;;;;;;1.00;0.43;;;16.40;99.90;;;;;;4953331;28;20062;-92
2021/06/30 08:12:09;;;;;;;2.92;0.40;;;16.30;99.90;;;;;;4951158;28;20321;-89
2021/06/30 08:14:43;;;;;;;0.50;0.50;;;16.30;99.90;;;;;;4937227;29;20047;-89
2021/06/30 08:17:23;;;;;;;0.30;0.30;;;16.60;99.90;;;;;;4953367;28;20133;-90
2021/06/30 08:19:50;;;;;;;2.03;0.30;;;17.20;99.90;;;;;;4954022;28;20130;-94
2021/06/30 08:22:50;;;;;;;1.20;0.30;;;17.20;99.90;;;;;;4943898;29;20058;-91
2021/06/30 08:25:24;;;;;;;2.17;0.50;;;17.00;99.90;;;;;;4954879;28;20126;-92
2021/06/30 08:28:23;;;;;;;0.93;0.45;;;16.80;99.90;;;;;;4959013;28;20047;-95
2021/06/30 08:30:59;;;;;;;7.10;3.22;;;16.90;99.90;;;;;;4956988;28;20071;-93
2021/06/30 08:33:51;;;;;;;0.95;0.30;;;17.00;99.90;;;;;;4954079;28;20066;-94
2021/06/30 08:36:31;;;;;;;1.20;0.40;;;16.90;99.90;;;;;;4950014;28;20055;-93
2021/06/30 08:38:58;;;;;;;2.35;0.50;;;16.80;99.90;;;;;;4953301;28;20355;-95
2021/06/30 08:41:30;;;;;;;0.40;0.40;;;16.70;99.90;;;;;;4950332;28;20055;-89
2021/06/30 08:44:00;;;;;;;2.13;0.60;;;16.30;99.90;;;;;;4943043;28;20067;-92
2021/06/30 08:46:27;;;;;;;10.27;1.17;;;16.00;99.90;;;;;;4954292;28;20074;-89
2021/06/30 08:49:06;;;;;;;1.52;0.75;;;15.70;99.90;;;;;;4933824;28;20055;-92
2021/06/30 08:51:35;;;;;;;0.75;0.75;;;14.80;99.90;;;;;;4944538;28;20094;-89
2021/06/30 08:54:06;;;;;;;3.05;1.05;;;14.10;99.90;;;;;;4916795;28;20055;-93
2021/06/30 08:56:35;;;;;;;0.88;0.88;;;13.90;99.90;;;;;;4953254;28;20054;-93
2021/06/30 08:59:20;;;;;;;2.90;1.30;;;13.80;99.90;;;;;;4970803;28;20063;-93
2021/06/30 09:02:00;;;;;;;1.63;0.90;;;13.80;99.90;;;;;;4967578;28;20078;-93
2021/06/30 09:04:27;;;;;;;1.42;1.33;;;13.90;99.90;;;;;;4974039;28;20466;-96
2021/06/30 09:07:19;;;;;;;0.77;0.77;;;14.10;99.90;;;;;;4917679;28;20057;-93
2021/06/30 09:10:03;;;;;;;1.08;0.70;;;14.40;99.90;;;;;;4942866;28;20055;-92
2021/06/30 09:12:44;;;;;;;0.52;0.52;;;14.90;99.90;;;;;;4937175;29;20055;-93
2021/06/30 09:15:29;;;;;;;;;;;;;;;;;;;;;
2021/06/30 09:18:26;;;;;;;1.95;0.60;;;15.50;99.90;;;;;;4952562;29;20061;-93
2021/06/30 09:21:26;;;;;;;2.38;0.75;;;15.40;99.90;;;;;;4946731;28;20043;-92
2021/06/30 09:24:22;;;;;;;3.75;0.50;;;15.30;99.90;;;;;;4952435;29;20099;-90
2021/06/30 09:27:16;;;;;;;1.77;0.60;;;15.00;99.90;;;;;;4916892;29;20071;-90
2021/06/30 09:29:44;;;;;;;1.20;0.50;;;14.80;99.90;;;;;;4914857;29;20048;-91
2021/06/30 09:32:17;;;;;;;0.63;0.50;;;14.70;99.90;;;;;;4834997;29;20057;-93
2021/06/30 09:36:31;;;;;;;1.00;0.63;;;14.80;99.90;;;;;;5076138;27;20480;-93
2021/06/30 09:39:13;;;;;;;0.52;0.50;;;15.20;99.90;;;;;;4993353;28;20062;-91
2021/06/30 09:42:01;;;;;;;0.85;0.40;;;15.60;99.90;;;;;;4992133;28;20045;-91
2021/06/30 09:45:25;;;;;;;2.13;0.50;;;16.00;99.90;;;;;;4999698;28;21493;-92
2021/06/30 09:48:00;;;;;;;1.73;0.60;;;16.70;99.90;;;;;;5002566;28;20153;-92
2021/06/30 09:51:16;;;;;;;2.55;0.40;;;17.20;99.90;;;;;;5010945;28;20063;-93
2021/06/30 09:54:32;;;;;;;0.82;0.32;;;17.70;99.90;;;;;;4949712;28;20089;-92
2021/06/30 09:57:31;;;;;;;0.95;0.63;;;18.30;99.90;;;;;;4938569;28;20062;-91
2021/06/30 10:00:19;;;;;;;0.40;0.30;;;18.60;99.90;;;;;;5011820;28;20058;-93
2021/06/30 10:02:58;;;;;;;0.52;0.30;;;19.10;99.90;;;;;;4989023;28;20069;-93
2021/06/30 10:05:38;;;;;;;1.90;0.60;;;19.60;99.90;;;;;;5017084;28;20055;-92
2021/06/30 10:08:19;;;;;;;0.57;0.30;;;19.10;99.90;;;;;;5027176;28;20335;-93
2021/06/30 10:11:40;;;;;;;3.10;0.40;;;19.00;99.90;;;;;;4962473;28;20069;-93
2021/06/30 10:17:20;;;;;;;1.10;0.40;;;19.90;99.90;;;;;;4975281;28;20508;-94
2021/06/30 10:19:51;;;;;;;2.83;0.35;;;20.80;99.90;;;;;;4965956;28;20047;-92
2021/06/30 10:22:26;;;;;;;0.57;0.30;;;21.90;99.90;;;;;;4976320;28;20055;-93
2021/06/30 10:24:55;;;;;;;2.28;0.28;;;22.30;94.10;;;;;;4982752;28;20065;-92
2021/06/30 10:27:23;;;;;;;0.28;0.20;;;22.60;94.50;;;;;;5006049;28;20061;-93
2021/06/30 10:29:58;;;;;;;1.98;0.40;;;23.00;88.60;;;;;;5026296;28;20069;-93
2021/06/30 10:32:29;;;;;;;0.57;0.30;;;23.00;89.10;;;;;;5043249;28;20133;-94
2021/06/30 10:35:18;;;;;;;1.05;0.30;;;22.30;88.70;;;;;;5011240;28;20237;-90
2021/06/30 10:38:00;;;;;;;0.57;0.40;;;21.00;89.20;;;;;;4961742;28;20050;-94
2021/06/30 10:40:48;;;;;;;5.10;0.80;;;20.10;91.20;;;;;;5026022;28;20057;-91
2021/06/30 10:43:20;;;;;;;1.40;0.50;;;19.40;94.50;;;;;;5057445;28;20091;-93
2021/06/30 10:46:23;;;;;;;0.38;0.30;;;18.90;96.10;;;;;;5054264;28;20071;-92
2021/06/30 10:49:28;;;;;;;0.60;0.50;;;18.60;97.40;;;;;;5053864;28;20174;-90
2021/06/30 10:52:03;;;;;;;2.72;0.63;;;18.20;98.40;;;;;;5061581;28;20095;-91
2021/06/30 10:54:40;;;;;;;3.33;1.23;;;17.70;99.90;;;;;;5058879;28;20060;-89
2021/06/30 10:57:25;;;;;;;2.28;1.02;;;16.90;99.90;;;;;;4963643;28;20053;-92
2021/06/30 11:12:50;;;;;;;1.25;0.63;;;19.30;99.90;;;;;;5169688;27;20561;-90
2021/06/30 11:16:07;;;;;;;0.60;0.60;;;21.40;99.90;;;;;;5118554;27;20064;-91
2021/06/30 11:18:43;;;;;;;3.03;0.50;;;21.80;99.90;;;;;;5085098;28;20063;-92
2021/06/30 11:21:13;;;;;;;1.08;0.45;;;20.60;99.90;;;;;;5083052;28;20135;-92
2021/06/30 11:23:42;;;;;;;1.10;0.40;;;19.70;99.90;;;;;;5090483;28;20066;-91
2021/06/30 11:26:42;;;;;;;1.48;0.52;;;19.20;99.90;;;;;;5087341;28;20067;-94
2021/06/30 11:29:42;;;;;;;4.57;1.55;;;18.20;99.90;;;;;;5077405;28;20175;-92
2021/06/30 11:32:30;;;;;;;0.55;0.50;;;17.20;99.90;;;;;;5083844;28;20131;-92
2021/06/30 11:35:02;;;;;;;3.95;0.80;;;15.80;99.90;;;;;;5080654;28;20139;-92
2021/06/30 11:37:36;;;;;;;3.28;0.98;;;15.20;99.90;;;;;;5098989;28;20464;-91
2021/06/30 11:40:23;;;;;;;2.17;1.00;;;15.00;99.90;;;;;;5079230;28;20052;-93
2021/06/30 11:42:53;;;;;;;1.42;0.93;;;15.00;99.90;;;;;;5091058;28;20443;-89
2021/06/30 11:45:31;;;;;;;1.45;0.90;;;15.10;99.90;;;;;;5094263;28;20416;-90
2021/06/30 11:48:09;;;;;;;0.70;0.70;;;15.30;99.90;;;;;;5093437;28;20059;-91
2021/06/30 11:51:04;;;;;;;1.30;0.85;;;15.50;99.90;;;;;;5050332;28;212092;-91
2021/06/30 11:55:38;;;;;;;0.95;0.63;;;15.40;99.90;;;;;;4194734;27;101868652;-84
2021/06/30 12:02:48;;;;;;;0.80;0.80;;;15.40;99.90;;;;;;4144945;27;177970455;-93
2021/06/30 12:05:41;;;;;;;1.17;0.50;;;17.50;99.90;;;;;;2930836;28;59194255;-91
2021/06/30 12:08:39;;;;;;;0.98;0.50;;;18.40;99.90;;;;;;4960240;28;20098;-91
2021/06/30 12:11:45;;;;;;;1.02;0.68;;;18.20;99.90;;;;;;4928033;28;20055;-92
2021/06/30 12:14:43;;;;;;;2.55;0.88;;;18.10;99.90;;;;;;4949212;28;20051;-89
2021/06/30 12:17:46;;;;;;;0.60;0.60;;;17.90;99.90;;;;;;4946359;28;20051;-91
2021/06/30 12:20:48;;;;;;;1.02;0.50;;;18.10;99.90;;;;;;4942040;28;20346;-90
2021/06/30 12:23:38;;;;;;;0.73;0.60;;;18.00;99.90;;;;;;4933603;28;20486;-90
2021/06/30 12:28:09;;;;;;;;;;;17.60;99.90;;;;;;2162849;28;177474764;-93
2021/06/30 12:31:36;;;;;;;;;;;17.00;99.90;;;;;;3;352;182005823;-90
2021/06/30 12:34:32;;;;;;;3.55;0.68;;;16.60;99.90;;;;;;4928627;29;19934;-92
2021/06/30 12:37:41;;;;;;;1.50;0.70;;;16.90;99.90;;;;;;4923798;29;20464;-90
2021/06/30 12:40:28;;;;;;;1.25;0.75;;;17.50;99.90;;;;;;4937933;28;20051;-90
2021/06/30 12:43:37;;;;;;;1.27;0.70;;;17.70;99.90;;;;;;4929489;28;20466;-93
2021/06/30 12:46:30;;;;;;;0.50;0.50;;;18.00;99.90;;;;;;4932565;28;20091;-90
2021/06/30 12:49:18;;;;;;;1.60;0.63;;;18.80;99.90;;;;;;4917321;29;20059;-91
2021/06/30 12:52:18;;;;;;;0.40;0.40;;;20.80;99.90;;;;;;4928228;29;20052;-91
2021/06/30 12:55:10;;;;;;;2.05;0.40;;;22.00;99.90;;;;;;4934431;28;20077;-89
2021/06/30 12:58:03;;;;;;;1.33;0.43;;;21.80;99.50;;;;;;4952618;28;20047;-90
2021/06/30 13:01:01;;;;;;;1.55;0.32;;;20.60;99.90;;;;;;4978153;28;20058;-91
2021/06/30 13:03:52;;;;;;;1.85;0.30;;;20.00;99.90;;;;;;4952463;28;20051;-92
2021/06/30 13:07:00;;;;;;;;;;;;;;;;;;;;;
2021/06/30 13:09:51;;;;;;;0.40;0.40;;;18.90;99.90;;;;;;4952869;28;20048;-92
2021/06/30 13:12:45;;;;;;;0.75;0.50;;;18.60;99.90;;;;;;4929328;29;20044;-91
2021/06/30 13:15:35;;;;;;;2.13;0.60;;;18.60;99.90;;;;;;4940993;28;20051;-89
2021/06/30 13:18:23;;;;;;;1.60;0.35;;;18.50;99.90;;;;;;4938087;29;20040;-90
2021/06/30 13:21:16;;;;;;;0.73;0.40;;;18.50;99.90;;;;;;4933631;29;20642;-92
2021/06/30 13:24:21;;;;;;;0.50;0.50;;;18.20;99.90;;;;;;4938224;29;20130;-91
2021/06/30 13:36:59;;;;;;;0.38;0.38;;;17.50;99.90;;;;;;4958529;28;20059;-91
2021/06/30 13:39:50;;;;;;;4.38;0.43;;;17.60;99.90;;;;;;4972996;28;20043;-92
2021/06/30 13:42:42;;;;;;;5.22;0.70;;;17.70;99.90;;;;;;4936176;29;20497;-90
2021/06/30 13:45:47;;;;;;;0.77;0.45;;;17.70;99.90;;;;;;4949744;28;20040;-92
2021/06/30 13:48:34;;;;;;;0.85;0.57;;;17.60;99.90;;;;;;4942103;28;20039;-91
2021/06/30 13:51:22;;;;;;;0.80;0.65;;;17.70;99.90;;;;;;4940761;28;20048;-90
2021/06/30 13:54:09;;;;;;;0.65;0.57;;;17.80;99.90;;;;;;4936004;29;20062;-92
2021/06/30 13:56:57;;;;;;;1.15;0.70;;;17.90;99.90;;;;;;4966246;28;20052;-92
2021/06/30 14:00:23;;;;;;;0.52;0.50;;;18.30;99.90;;;;;;4938588;28;20126;-92
2021/06/30 14:03:18;;;;;;;0.70;0.50;;;18.70;99.90;;;;;;4959644;28;20134;-89
2021/06/30 14:06:07;;;;;;;0.73;0.45;;;18.90;99.90;;;;;;4938118;29;20059;-93
2021/06/30 14:08:57;;;;;;;1.00;0.60;;;18.40;99.90;;;;;;4935688;29;20142;-92
2021/06/30 14:11:45;;;;;;;1.95;0.52;;;17.90;99.90;;;;;;4937527;28;20051;-92
2021/06/30 14:14:37;;;;;;;0.50;0.50;;;17.80;99.90;;;;;;4942825;29;20035;-91
2021/06/30 14:17:43;;;;;;;0.63;0.60;;;17.60;99.90;;;;;;4950581;29;20040;-93
2021/06/30 14:20:31;;;;;;;0.57;0.57;;;17.60;99.90;;;;;;4940880;29;20043;-91
2021/06/30 14:23:23;;;;;;;0.93;0.65;;;17.80;99.90;;;;;;4930558;29;20478;-92
2021/06/30 14:26:11;;;;;;;0.93;0.60;;;18.40;99.90;;;;;;4936289;29;20429;-93